Time;durP1;ratioP1;P1;durP2;ratioP2;P2;SDS_P1;SDS_P2;PMS_P1;PMS_P2;Temp;Humidity;BMP_temperature;BMP_pressure;BME280_temperature;BME280_humidity;BME280_pressure;Samples;Min_cycle;Max_cycle;Signal;HPM_P1;HPM_P2
2021/08/20 00:00:13;;;;;;;14.25;10.55;;;;;;;14.56;89.91;101518.50;686200;28;877;-59
2021/08/20 00:00:33;;;;;;;14.20;10.57;;;;;;;14.57;89.99;101520.22;686242;28;899;-59
2021/08/20 00:00:53;;;;;;;12.25;10.48;;;;;;;14.58;89.83;101521.06;686242;28;810;-59
2021/08/20 00:01:14;;;;;;;13.03;10.17;;;;;;;14.57;89.99;101520.22;686240;28;941;-59
2021/08/20 00:01:34;;;;;;;13.27;10.13;;;;;;;14.59;89.91;101523.69;686229;28;991;-59
2021/08/20 00:01:54;;;;;;;13.37;10.40;;;;;;;14.59;89.97;101515.72;686035;28;992;-59
2021/08/20 00:02:15;;;;;;;13.00;10.50;;;;;;;14.58;90.24;101515.78;686281;28;805;-59
2021/08/20 00:02:35;;;;;;;14.23;10.57;;;;;;;14.57;90.14;101517.56;686284;28;875;-59
2021/08/20 00:02:55;;;;;;;14.73;10.50;;;;;;;14.56;90.09;101518.50;685765;28;809;-59
2021/08/20 00:03:15;;;;;;;15.10;10.60;;;;;;;14.55;90.08;101515.91;686233;28;1011;-59
2021/08/20 00:03:39;;;;;;;13.63;10.30;;;;;;;14.55;90.12;101519.41;688220;28;1616;-59
2021/08/20 00:04:02;;;;;;;12.65;10.07;;;;;;;14.56;90.21;101515.88;688556;28;1405;-59
2021/08/20 00:04:22;;;;;;;13.38;10.35;;;;;;;14.56;90.24;101518.50;688891;28;924;-59
2021/08/20 00:04:43;;;;;;;13.10;10.33;;;;;;;14.57;90.04;101511.41;688796;28;1034;-59
2021/08/20 00:05:10;;;;;;;14.45;10.05;;;;;;;14.57;90.11;101516.72;688986;28;768;-60
2021/08/20 00:05:30;;;;;;;14.35;10.82;;;;;;;14.55;90.13;101511.47;686873;28;1461;-60
2021/08/20 00:05:51;;;;;;;14.32;10.57;;;;;;;14.56;90.21;101509.69;686200;28;1394;-60
2021/08/20 00:06:11;;;;;;;13.20;10.37;;;;;;;14.55;90.07;101511.47;686235;28;904;-58
2021/08/20 00:06:32;;;;;;;14.30;10.43;;;;;;;14.55;89.97;101516.78;686232;28;876;-59
2021/08/20 00:06:52;;;;;;;15.35;10.65;;;;;;;14.55;90.21;101514.13;686343;28;925;-59
2021/08/20 00:07:12;;;;;;;15.30;10.67;;;;;;;14.55;89.96;101516.78;686226;28;1239;-59
2021/08/20 00:07:35;;;;;;;15.07;10.50;;;;;;;14.56;90.30;101515.88;686116;28;984;-59
2021/08/20 00:07:55;;;;;;;12.70;10.25;;;;;;;14.55;90.16;101515.91;686219;28;920;-59
2021/08/20 00:08:18;;;;;;;13.17;10.87;;;;;;;14.54;90.36;101515.06;685527;28;1051;-59
2021/08/20 00:08:39;;;;;;;13.40;10.50;;;;;;;14.55;90.29;101511.47;685254;28;1393;-59
2021/08/20 00:09:02;;;;;;;12.53;10.17;;;;;;;14.54;90.33;101512.41;685772;28;1103;-60
2021/08/20 00:09:22;;;;;;;14.13;10.63;;;;;;;14.56;90.21;101509.69;685709;28;1007;-59
2021/08/20 00:09:42;;;;;;;13.98;10.40;;;;;;;14.55;90.07;101508.81;685788;28;797;-59
2021/08/20 00:10:03;;;;;;;13.53;10.70;;;;;;;14.56;90.21;101507.91;685758;28;975;-59
2021/08/20 00:10:25;;;;;;;13.90;10.88;;;;;;;14.55;90.20;101507.97;685637;28;1321;-59
2021/08/20 00:10:45;;;;;;;13.70;10.90;;;;;;;14.51;89.98;101504.59;685814;28;861;-59
2021/08/20 00:11:06;;;;;;;14.90;11.10;;;;;;;14.49;90.16;101511.75;685857;28;850;-59
2021/08/20 00:11:27;;;;;;;16.17;11.60;;;;;;;14.51;90.15;101509.91;685795;28;853;-59
2021/08/20 00:11:47;;;;;;;14.38;10.90;;;;;;;14.52;90.11;101511.63;685706;28;791;-59
2021/08/20 00:12:10;;;;;;;13.73;10.07;;;;;;;14.53;90.19;101512.50;685778;28;1092;-59
2021/08/20 00:12:30;;;;;;;15.07;10.55;;;;;;;14.51;90.25;101514.34;685859;28;885;-59
2021/08/20 00:12:51;;;;;;;13.68;10.40;;;;;;;14.51;90.10;101520.50;685446;28;884;-59
2021/08/20 00:13:11;;;;;;;13.10;11.10;;;;;;;14.50;90.40;101513.50;685805;28;996;-59
2021/08/20 00:13:31;;;;;;;14.53;11.30;;;;;;;14.50;90.73;101510.84;685974;28;928;-59
2021/08/20 00:13:51;;;;;;;13.95;11.13;;;;;;;14.51;90.23;101512.56;685733;28;838;-59
2021/08/20 00:14:15;;;;;;;14.27;10.90;;;;;;;14.49;90.41;101511.75;685646;28;1343;-59
2021/08/20 00:14:36;;;;;;;14.27;10.80;;;;;;;14.51;90.29;101523.16;685880;28;884;-59
2021/08/20 00:14:56;;;;;;;14.17;10.83;;;;;;;14.50;90.53;101510.84;685862;28;941;-59
2021/08/20 00:15:16;;;;;;;14.80;11.15;;;;;;;14.51;90.56;101515.19;685678;28;1911;-59
2021/08/20 00:15:37;;;;;;;13.40;11.20;;;;;;;14.49;90.49;101517.91;686659;28;1505;-60
2021/08/20 00:15:57;;;;;;;13.10;11.30;;;;;;;14.49;90.43;101517.06;688249;28;813;-60
2021/08/20 00:16:17;;;;;;;15.68;11.60;;;;;;;14.50;90.61;101516.16;688577;28;944;-59
2021/08/20 00:16:38;;;;;;;14.33;11.30;;;;;;;14.51;90.48;101517.84;688471;28;991;-59
2021/08/20 00:16:58;;;;;;;14.27;11.07;;;;;;;14.49;90.43;101511.75;688456;28;841;-59
2021/08/20 00:17:18;;;;;;;13.67;11.10;;;;;;;14.48;90.44;101521.47;688514;28;974;-59
2021/08/20 00:17:39;;;;;;;13.70;11.07;;;;;;;14.47;90.58;101519.75;686952;28;1450;-59
2021/08/20 00:17:59;;;;;;;13.05;11.02;;;;;;;14.45;90.55;101518.09;685670;28;782;-59
2021/08/20 00:18:19;;;;;;;15.10;11.30;;;;;;;14.45;90.58;101516.34;685889;28;821;-59
2021/08/20 00:18:42;;;;;;;15.17;11.80;;;;;;;14.44;90.80;101519.91;686390;28;1274;-58
2021/08/20 00:19:05;;;;;;;14.35;11.63;;;;;;;14.43;90.97;101520.00;685757;28;871;-61
2021/08/20 00:19:25;;;;;;;15.57;11.48;;;;;;;14.38;91.02;101519.31;685730;28;986;-59
2021/08/20 00:19:46;;;;;;;14.98;11.63;;;;;;;14.37;90.86;101517.63;685646;28;1273;-59
2021/08/20 00:20:07;;;;;;;15.10;11.53;;;;;;;14.36;91.02;101510.59;685705;28;987;-58
2021/08/20 00:20:27;;;;;;;15.57;11.38;;;;;;;14.31;91.05;101517.91;685845;28;1116;-59
2021/08/20 00:20:47;;;;;;;14.63;11.70;;;;;;;14.34;91.20;101515.97;685727;28;1010;-59
2021/08/20 00:21:11;;;;;;;14.65;11.43;;;;;;;14.32;91.19;101522.28;685846;28;951;-59
2021/08/20 00:21:34;;;;;;;13.60;11.27;;;;;;;14.32;91.23;101524.94;685768;28;1769;-59
2021/08/20 00:21:54;;;;;;;14.45;11.57;;;;;;;14.31;91.05;101517.91;685729;28;936;-58
2021/08/20 00:22:18;;;;;;;14.07;11.70;;;;;;;14.29;91.16;101517.13;685694;28;942;-59
2021/08/20 00:22:38;;;;;;;12.82;11.20;;;;;;;14.33;91.10;101516.03;685673;28;1466;-59
2021/08/20 00:22:58;;;;;;;15.60;11.50;;;;;;;14.35;91.23;101523.00;687079;28;1406;-60
2021/08/20 00:23:19;;;;;;;15.73;11.53;;;;;;;14.36;91.22;101511.47;685934;28;995;-58
2021/08/20 00:23:39;;;;;;;14.77;11.15;;;;;;;14.37;91.08;101517.63;685746;28;1015;-59
2021/08/20 00:23:59;;;;;;;14.40;11.73;;;;;;;14.37;91.07;101514.97;685651;28;1387;-59
2021/08/20 00:24:20;;;;;;;16.90;11.80;;;;;;;14.37;90.97;101520.28;685601;28;1278;-59
2021/08/20 00:24:40;;;;;;;13.63;11.38;;;;;;;14.35;90.93;101515.06;685796;28;849;-59
2021/08/20 00:25:00;;;;;;;13.37;11.03;;;;;;;14.37;90.96;101517.63;685712;28;1698;-58
2021/08/20 00:25:23;;;;;;;14.60;11.68;;;;;;;14.37;91.17;101518.47;685733;28;1485;-58
2021/08/20 00:25:44;;;;;;;14.88;11.38;;;;;;;14.37;91.16;101513.16;685784;28;833;-59
2021/08/20 00:26:04;;;;;;;14.30;11.10;;;;;;;14.39;91.12;101515.78;685633;28;1005;-59
2021/08/20 00:26:25;;;;;;;14.23;11.00;;;;;;;14.39;90.87;101516.63;685752;28;1042;-59
2021/08/20 00:26:45;;;;;;;14.20;11.07;;;;;;;14.39;90.89;101505.16;685787;28;979;-59
2021/08/20 00:27:08;;;;;;;15.53;11.47;;;;;;;14.41;90.90;101513.88;685839;28;983;-58
2021/08/20 00:27:28;;;;;;;14.57;11.63;;;;;;;14.39;90.88;101513.13;685766;28;827;-59
2021/08/20 00:27:49;;;;;;;14.20;11.27;;;;;;;14.37;91.00;101512.31;687599;28;1422;-59
2021/08/20 00:28:09;;;;;;;16.07;11.23;;;;;;;14.36;90.76;101511.47;688421;28;805;-60
2021/08/20 00:28:30;;;;;;;14.10;11.15;;;;;;;14.36;90.89;101505.31;688334;28;820;-60
2021/08/20 00:28:50;;;;;;;14.30;10.90;;;;;;;14.35;91.00;101508.88;688533;28;888;-58
2021/08/20 00:29:12;;;;;;;14.73;11.47;;;;;;;14.35;91.01;101506.22;688300;28;910;-59
2021/08/20 00:29:32;;;;;;;15.38;11.38;;;;;;;14.32;90.90;101504.59;688543;28;840;-59
2021/08/20 00:29:52;;;;;;;15.75;11.43;;;;;;;14.32;90.89;101506.38;688459;28;904;-59
2021/08/20 00:30:13;;;;;;;15.50;11.60;;;;;;;14.31;91.14;101509.94;688328;28;902;-59
2021/08/20 00:30:33;;;;;;;15.10;11.27;;;;;;;14.30;90.96;101510.88;688389;28;936;-59
2021/08/20 00:30:53;;;;;;;14.70;11.63;;;;;;;14.30;91.15;101510.88;688539;28;884;-58
2021/08/20 00:31:13;;;;;;;13.47;11.47;;;;;;;14.30;91.26;101505.59;688300;28;821;-58
2021/08/20 00:31:34;;;;;;;12.70;10.98;;;;;;;14.31;91.28;101507.28;688305;28;1449;-58
2021/08/20 00:31:54;;;;;;;14.40;11.67;;;;;;;14.31;91.28;101512.59;685795;28;1414;-59
2021/08/20 00:32:14;;;;;;;15.20;11.50;;;;;;;14.33;91.24;101506.28;685746;28;928;-59
2021/08/20 00:32:36;;;;;;;15.40;11.80;;;;;;;14.33;91.22;101502.78;685686;28;961;-58
2021/08/20 00:32:56;;;;;;;15.32;11.50;;;;;;;14.34;90.86;101501.84;685351;28;971;-59
2021/08/20 00:33:17;;;;;;;14.93;11.17;;;;;;;14.36;91.17;101510.59;685832;28;837;-59
2021/08/20 00:33:37;;;;;;;14.57;11.20;;;;;;;14.35;91.01;101508.88;685835;28;864;-59
2021/08/20 00:33:58;;;;;;;13.50;11.18;;;;;;;14.35;91.17;101503.56;685579;28;1285;-60
2021/08/20 00:34:18;;;;;;;13.40;11.05;;;;;;;14.37;91.00;101507.00;685811;28;1012;-59
2021/08/20 00:34:39;;;;;;;16.07;11.27;;;;;;;14.35;91.25;101506.22;685803;28;881;-58
2021/08/20 00:34:59;;;;;;;15.67;11.73;;;;;;;14.35;91.15;101508.88;685759;28;889;-60
2021/08/20 00:35:19;;;;;;;13.38;11.23;;;;;;;14.37;91.17;101501.72;685740;28;1974;-59
2021/08/20 00:35:39;;;;;;;14.43;11.37;;;;;;;14.36;91.20;101507.94;685837;28;912;-60
2021/08/20 00:36:00;;;;;;;14.17;10.93;;;;;;;14.35;91.08;101507.09;685595;28;967;-60
2021/08/20 00:36:20;;;;;;;13.90;11.45;;;;;;;14.36;91.18;101507.94;687700;28;1427;-60
2021/08/20 00:36:40;;;;;;;14.17;11.53;;;;;;;14.36;91.10;101500.00;688462;28;915;-59
2021/08/20 00:37:01;;;;;;;14.20;11.03;;;;;;;14.35;91.12;101499.16;688214;28;1040;-59
2021/08/20 00:37:21;;;;;;;14.88;11.05;;;;;;;14.35;91.11;101501.78;688437;28;1050;-58
2021/08/20 00:37:41;;;;;;;15.03;11.23;;;;;;;14.37;90.85;101502.56;688398;28;837;-58
2021/08/20 00:38:02;;;;;;;14.70;11.03;;;;;;;14.38;90.89;101503.41;688387;28;1038;-59
2021/08/20 00:38:25;;;;;;;14.65;11.48;;;;;;;14.39;91.14;101510.47;688371;28;1014;-59
2021/08/20 00:38:48;;;;;;;14.82;10.82;;;;;;;14.39;91.16;101505.16;688296;28;900;-59
2021/08/20 00:39:08;;;;;;;14.13;10.73;;;;;;;14.37;91.06;101504.34;688360;28;1089;-59
2021/08/20 00:39:28;;;;;;;13.70;10.93;;;;;;;14.38;91.12;101506.06;688455;28;797;-59
2021/08/20 00:39:49;;;;;;;13.27;10.93;;;;;;;14.38;90.94;101499.00;687633;28;1504;-60
2021/08/20 00:40:11;;;;;;;14.10;11.03;;;;;;;14.38;91.08;101508.72;687479;28;1399;-59
2021/08/20 00:40:32;;;;;;;14.27;11.02;;;;;;;14.39;91.13;101502.50;688311;28;1058;-59
2021/08/20 00:40:54;;;;;;;14.32;10.80;;;;;;;14.39;90.82;101500.72;688432;28;990;-59
2021/08/20 00:41:14;;;;;;;12.77;10.82;;;;;;;14.39;91.27;101500.72;688506;28;1039;-60
2021/08/20 00:41:35;;;;;;;14.60;11.47;;;;;;;14.40;91.24;101505.06;688285;28;989;-60
2021/08/20 00:41:55;;;;;;;13.63;11.13;;;;;;;14.39;91.29;101502.50;688444;28;936;-60
2021/08/20 00:42:16;;;;;;;14.83;11.17;;;;;;;14.41;91.18;101503.28;688345;28;951;-60
2021/08/20 00:42:39;;;;;;;15.27;11.15;;;;;;;14.41;90.93;101503.28;686687;28;1422;-60
2021/08/20 00:42:59;;;;;;;14.68;11.27;;;;;;;14.41;91.11;101497.97;685559;28;866;-59
2021/08/20 00:43:20;;;;;;;15.27;11.03;;;;;;;14.42;91.44;101499.72;685604;28;999;-60
2021/08/20 00:43:43;;;;;;;13.80;10.75;;;;;;;14.42;91.23;101500.56;685780;28;942;-60
2021/08/20 00:44:03;;;;;;;14.43;11.15;;;;;;;14.42;91.34;101500.56;685563;28;1657;-59
2021/08/20 00:44:24;;;;;;;15.50;11.60;;;;;;;14.42;90.90;101499.72;685592;28;1051;-59
2021/08/20 00:44:44;;;;;;;14.57;11.23;;;;;;;14.41;91.19;101495.31;685800;28;876;-60
2021/08/20 00:45:05;;;;;;;15.17;11.50;;;;;;;14.39;91.01;101500.72;685640;28;921;-60
2021/08/20 00:45:25;;;;;;;15.40;11.85;;;;;;;14.41;90.91;101497.97;685680;28;1295;-59
2021/08/20 00:46:00;;;;;;;14.57;11.10;;;;;;;14.39;91.02;101503.38;688383;28;1003;-59
2021/08/20 00:46:21;;;;;;;14.55;11.20;;;;;;;14.41;90.87;101503.28;688334;28;1003;-59
2021/08/20 00:46:42;;;;;;;14.07;11.20;;;;;;;14.39;90.66;101499.84;688510;28;782;-60
2021/08/20 00:47:02;;;;;;;14.27;10.83;;;;;;;14.41;90.91;101498.81;688314;28;1829;-60
2021/08/20 00:47:23;;;;;;;13.50;10.90;;;;;;;14.41;91.00;101497.97;688247;28;848;-60
2021/08/20 00:47:44;;;;;;;13.43;10.63;;;;;;;14.38;91.13;101495.47;687663;28;1418;-59
2021/08/20 00:48:04;;;;;;;13.50;11.63;;;;;;;14.38;90.91;101493.69;685495;28;1054;-60
2021/08/20 00:48:25;;;;;;;14.65;11.73;;;;;;;14.38;90.93;101493.69;685820;28;1408;-60
2021/08/20 00:48:47;;;;;;;14.73;11.68;;;;;;;14.39;90.98;101494.56;685773;28;908;-59
2021/08/20 00:49:10;;;;;;;14.07;11.20;;;;;;;14.39;91.01;101495.41;685636;28;981;-60
2021/08/20 00:49:30;;;;;;;15.32;11.50;;;;;;;14.40;90.97;101497.13;685453;28;942;-59
2021/08/20 00:49:51;;;;;;;14.73;11.77;;;;;;;14.36;90.92;101503.50;685595;28;876;-59
2021/08/20 00:50:11;;;;;;;14.23;11.73;;;;;;;14.32;90.65;101501.06;685386;28;888;-59
2021/08/20 00:50:32;;;;;;;14.37;11.30;;;;;;;14.32;90.65;101503.72;685553;28;778;-60
2021/08/20 00:51:05;;;;;;;15.40;11.55;;;;;;;14.34;90.96;101502.69;685416;28;876;-60
2021/08/20 00:51:30;;;;;;;13.70;11.40;;;;;;;14.35;90.91;101501.78;685645;28;1208;-60
2021/08/20 00:51:53;;;;;;;15.75;11.68;;;;;;;14.36;90.78;101506.16;685643;28;920;-61
2021/08/20 00:52:17;;;;;;;14.88;11.38;;;;;;;14.38;90.76;101503.41;685387;28;1191;-58
2021/08/20 00:52:37;;;;;;;14.70;11.60;;;;;;;14.36;91.09;101503.50;685688;28;900;-58
2021/08/20 00:52:57;;;;;;;13.32;11.18;;;;;;;14.38;91.18;101506.06;685319;28;912;-59
2021/08/20 00:53:38;;;;;;;13.20;11.17;;;;;;;14.35;90.86;101500.91;685695;28;1015;-59
2021/08/20 00:53:58;;;;;;;15.05;11.68;;;;;;;14.38;90.96;101500.75;685211;28;1860;-60
2021/08/20 00:54:20;;;;;;;14.97;11.57;;;;;;;14.38;91.11;101508.72;685844;28;1410;-59
2021/08/20 00:54:40;;;;;;;15.73;11.73;;;;;;;14.37;90.96;101507.88;685656;28;853;-59
2021/08/20 00:55:04;;;;;;;16.53;11.80;;;;;;;14.39;91.02;101505.16;685725;28;1981;-59
2021/08/20 00:55:25;;;;;;;14.82;11.20;;;;;;;14.41;91.16;101504.13;685719;28;1406;-58
2021/08/20 00:55:51;;;;;;;14.90;11.25;;;;;;;14.41;90.60;101509.44;685595;28;837;-59
2021/08/20 00:56:11;;;;;;;14.30;11.38;;;;;;;14.41;90.70;101503.28;685706;28;1018;-58
2021/08/20 00:56:32;;;;;;;14.43;11.30;;;;;;;14.41;90.84;101509.44;685722;28;778;-59
2021/08/20 00:56:52;;;;;;;13.95;11.23;;;;;;;14.44;90.99;101508.44;685639;28;987;-60
2021/08/20 00:57:16;;;;;;;14.33;11.53;;;;;;;14.44;90.82;101508.44;685717;28;803;-58
2021/08/20 00:57:37;;;;;;;14.40;11.57;;;;;;;14.45;90.79;101510.16;685620;28;865;-59
2021/08/20 00:57:58;;;;;;;15.43;11.90;;;;;;;14.45;91.10;101512.81;685710;28;987;-59
2021/08/20 00:58:19;;;;;;;14.25;11.60;;;;;;;14.42;90.65;101505.88;685610;28;884;-58
2021/08/20 00:58:40;;;;;;;15.38;11.95;;;;;;;14.42;90.68;101505.88;685678;28;876;-59
2021/08/20 00:59:01;;;;;;;15.52;11.82;;;;;;;14.43;90.88;101510.25;685794;28;916;-58
2021/08/20 00:59:25;;;;;;;13.90;11.52;;;;;;;14.45;91.00;101510.16;685566;28;882;-59
2021/08/20 00:59:48;;;;;;;15.07;11.77;;;;;;;14.44;90.70;101504.00;685693;28;916;-59
2021/08/20 01:00:09;;;;;;;15.93;11.90;;;;;;;14.45;90.82;101515.47;685609;28;959;-59
2021/08/20 01:00:29;;;;;;;15.53;11.80;;;;;;;14.42;91.00;101510.31;685551;28;907;-58
2021/08/20 01:00:49;;;;;;;14.23;11.40;;;;;;;14.43;90.97;101507.59;685652;28;1067;-58
2021/08/20 01:01:10;;;;;;;13.83;11.47;;;;;;;14.41;90.78;101509.44;685794;28;932;-59
2021/08/20 01:01:31;;;;;;;13.60;11.77;;;;;;;14.37;90.99;101509.66;685617;28;894;-59
2021/08/20 01:01:52;;;;;;;15.30;12.25;;;;;;;14.35;90.75;101508.88;685695;28;854;-58
2021/08/20 01:02:12;;;;;;;15.47;12.20;;;;;;;14.34;90.86;101515.09;685496;28;880;-58
2021/08/20 01:02:35;;;;;;;15.43;12.20;;;;;;;14.35;91.06;101503.56;685690;28;995;-60
2021/08/20 01:02:55;;;;;;;14.60;11.80;;;;;;;14.32;90.99;101507.25;685289;28;943;-58
2021/08/20 01:03:16;;;;;;;15.43;12.10;;;;;;;14.34;91.02;101509.81;685576;28;1513;-59
2021/08/20 01:03:36;;;;;;;15.10;11.77;;;;;;;14.35;91.20;101503.56;685722;28;817;-58
2021/08/20 01:03:57;;;;;;;14.82;11.80;;;;;;;14.36;91.18;101510.59;685489;28;1527;-58
2021/08/20 01:04:17;;;;;;;15.30;11.67;;;;;;;14.36;91.22;101505.31;685252;28;1224;-58
2021/08/20 01:04:40;;;;;;;15.47;11.63;;;;;;;14.37;90.89;101507.88;685532;28;912;-59
2021/08/20 01:05:00;;;;;;;13.80;11.85;;;;;;;14.38;91.23;101503.41;685481;28;947;-59
2021/08/20 01:05:21;;;;;;;16.17;12.23;;;;;;;14.38;91.36;101504.31;685496;28;817;-58
2021/08/20 01:05:41;;;;;;;15.27;12.37;;;;;;;14.37;91.12;101513.16;686289;28;1376;-59
2021/08/20 01:06:02;;;;;;;14.93;11.63;;;;;;;14.37;91.25;101514.97;688083;28;924;-58
2021/08/20 01:06:26;;;;;;;15.77;12.10;;;;;;;14.38;91.12;101516.69;688344;28;845;-59
2021/08/20 01:06:47;;;;;;;14.30;11.80;;;;;;;14.40;91.18;101512.16;688374;28;832;-59
2021/08/20 01:07:08;;;;;;;14.18;11.70;;;;;;;14.37;91.35;101514.97;688279;28;991;-60
2021/08/20 01:07:30;;;;;;;16.80;12.10;;;;;;;14.38;91.23;101514.91;688401;28;862;-61
2021/08/20 01:07:51;;;;;;;16.67;12.50;;;;;;;14.38;91.40;101514.03;688265;28;836;-62
2021/08/20 01:08:11;;;;;;;18.65;12.55;;;;;;;14.37;91.77;101514.97;688214;28;975;-63
2021/08/20 01:08:32;;;;;;;17.73;12.30;;;;;;;14.37;91.65;101518.47;688329;28;777;-62
2021/08/20 01:08:52;;;;;;;17.05;13.07;;;;;;;14.36;91.68;101515.91;688342;28;912;-62
2021/08/20 01:09:13;;;;;;;19.03;13.00;;;;;;;14.39;91.97;101511.31;688414;28;1061;-61
2021/08/20 01:09:35;;;;;;;17.98;13.32;;;;;;;14.36;92.37;101510.59;688419;28;932;-62
2021/08/20 01:09:55;;;;;;;18.20;12.95;;;;;;;14.37;92.32;101512.31;688317;28;955;-62
2021/08/20 01:10:16;;;;;;;19.58;13.50;;;;;;;14.38;92.69;101511.38;688219;28;1570;-63
2021/08/20 01:10:37;;;;;;;23.03;13.73;;;;;;;14.39;92.50;101506.00;685909;28;1370;-61
2021/08/20 01:10:59;;;;;;;22.48;13.23;;;;;;;14.43;92.36;101510.25;685705;28;897;-63
2021/08/20 01:11:21;;;;;;;24.48;13.35;;;;;;;14.47;92.75;101508.31;685708;28;913;-63
2021/08/20 01:11:41;;;;;;;20.48;13.30;;;;;;;14.55;92.64;101505.31;685562;28;1078;-63
2021/08/20 01:12:14;;;;;;;21.23;13.70;;;;;;;14.55;92.54;101498.19;685695;28;1000;-61
2021/08/20 01:12:38;;;;;;;21.98;13.80;;;;;;;14.51;92.30;101499.28;685646;28;892;-62
2021/08/20 01:12:59;;;;;;;23.35;13.65;;;;;;;14.49;92.31;101501.13;685462;28;1035;-65
2021/08/20 01:13:19;;;;;;;22.47;12.90;;;;;;;14.48;92.29;101491.44;685726;28;953;-64
2021/08/20 01:13:41;;;;;;;21.30;12.90;;;;;;;14.56;92.33;101492.00;685608;28;955;-63
2021/08/20 01:14:02;;;;;;;20.23;13.25;;;;;;;14.57;92.10;101496.34;685632;28;1265;-65
2021/08/20 01:14:31;;;;;;;18.85;13.32;;;;;;;14.56;92.14;101489.34;685557;28;960;-63
2021/08/20 01:14:52;;;;;;;17.10;12.90;;;;;;;14.59;91.84;101491.84;686445;28;1438;-64
2021/08/20 01:15:12;;;;;;;17.55;12.82;;;;;;;14.65;91.69;101493.31;685758;28;1914;-60
2021/08/20 01:15:33;;;;;;;18.90;12.85;;;;;;;14.62;91.89;101489.00;685691;28;888;-63
2021/08/20 01:15:54;;;;;;;17.37;13.20;;;;;;;14.62;91.64;101485.50;685577;28;861;-63
2021/08/20 01:16:14;;;;;;;16.83;12.65;;;;;;;14.62;91.67;101490.81;687658;28;1379;-68
2021/08/20 01:16:36;;;;;;;15.83;12.33;;;;;;;14.60;91.78;101492.69;688129;28;861;-64
2021/08/20 01:16:58;;;;;;;16.55;12.88;;;;;;;14.67;91.66;101489.66;688438;28;923;-64
2021/08/20 01:17:21;;;;;;;19.95;13.18;;;;;;;14.65;91.32;101491.53;688235;28;1075;-63
2021/08/20 01:17:41;;;;;;;23.50;13.07;;;;;;;14.67;91.42;101488.81;688390;28;924;-63
2021/08/20 01:18:02;;;;;;;21.27;12.83;;;;;;;14.65;91.05;101488.88;690723;28;1231;-64
2021/08/20 01:18:25;;;;;;;19.37;12.83;;;;;;;14.60;91.42;101488.25;688328;28;1449;-64
2021/08/20 01:18:45;;;;;;;19.10;13.23;;;;;;;14.62;91.27;101482.84;688278;28;924;-62
2021/08/20 01:19:05;;;;;;;21.42;13.38;;;;;;;14.62;91.14;101488.16;688160;28;810;-64
2021/08/20 01:19:26;;;;;;;16.83;12.47;;;;;;;14.77;91.15;101489.22;688098;28;857;-63
2021/08/20 01:19:47;;;;;;;17.25;12.57;;;;;;;14.79;90.97;101490.00;687630;28;917;-62
2021/08/20 01:20:11;;;;;;;21.20;12.80;;;;;;;14.77;91.02;101486.56;685639;28;869;-64
2021/08/20 01:20:31;;;;;;;21.80;13.50;;;;;;;14.79;90.87;101482.03;685514;28;976;-63
2021/08/20 01:20:52;;;;;;;22.63;13.43;;;;;;;14.86;90.83;101483.44;685733;28;793;-62
2021/08/20 01:21:15;;;;;;;19.25;12.90;;;;;;;14.89;90.67;101483.31;685578;28;1083;-65
2021/08/20 01:21:36;;;;;;;22.38;13.18;;;;;;;14.84;90.65;101483.53;685567;28;944;-62
2021/08/20 01:21:56;;;;;;;21.73;13.27;;;;;;;14.80;90.54;101486.44;685527;28;863;-66
2021/08/20 01:22:17;;;;;;;22.10;12.77;;;;;;;14.81;90.64;101480.19;685469;28;793;-65
2021/08/20 01:22:41;;;;;;;17.35;12.52;;;;;;;14.87;90.74;101479.88;685357;28;926;-65
2021/08/20 01:23:05;;;;;;;19.10;12.48;;;;;;;14.81;90.96;101477.53;685247;28;825;-62
2021/08/20 01:23:27;;;;;;;16.40;12.50;;;;;;;14.78;90.74;101480.31;685641;28;861;-64
2021/08/20 01:24:05;;;;;;;19.23;12.85;;;;;;;14.67;91.04;101483.50;685707;28;1023;-62
2021/08/20 01:24:27;;;;;;;16.25;12.63;;;;;;;14.66;91.25;101489.75;685646;28;884;-62
2021/08/20 01:24:48;;;;;;;18.85;12.77;;;;;;;14.64;91.24;101487.16;685635;28;1035;-62
2021/08/20 01:25:12;;;;;;;18.95;12.88;;;;;;;14.64;91.24;101487.16;685483;28;1453;-60
2021/08/20 01:25:34;;;;;;;20.17;12.55;;;;;;;14.60;91.68;101482.94;685720;28;864;-64
2021/08/20 01:25:55;;;;;;;19.23;12.60;;;;;;;14.55;91.96;101482.28;685558;28;874;-63
2021/08/20 01:26:16;;;;;;;16.98;12.80;;;;;;;14.52;91.97;101485.13;685599;28;1039;-64
2021/08/20 01:26:36;;;;;;;16.40;13.15;;;;;;;14.52;92.13;101481.56;685674;28;806;-64
2021/08/20 01:26:56;;;;;;;19.83;13.40;;;;;;;14.50;92.16;101479.00;685620;28;848;-63
2021/08/20 01:27:17;;;;;;;18.50;12.93;;;;;;;14.50;92.22;101481.66;685670;28;827;-64
2021/08/20 01:27:40;;;;;;;15.52;12.80;;;;;;;14.48;92.39;101488.78;685592;28;1011;-62
2021/08/20 01:28:05;;;;;;;16.35;13.30;;;;;;;14.49;92.50;101477.28;685699;28;1219;-65
2021/08/20 01:28:26;;;;;;;16.00;12.98;;;;;;;14.52;92.34;101484.22;685565;28;876;-62
2021/08/20 01:28:46;;;;;;;16.27;12.85;;;;;;;14.52;92.36;101481.56;685655;28;847;-60
2021/08/20 01:29:07;;;;;;;16.08;12.70;;;;;;;14.48;92.31;101484.34;685654;28;1147;-63
2021/08/20 01:29:27;;;;;;;16.47;12.87;;;;;;;14.49;92.56;101482.56;685722;28;900;-61
2021/08/20 01:29:50;;;;;;;18.10;13.25;;;;;;;14.44;92.62;101481.91;685533;28;1059;-62
2021/08/20 01:30:11;;;;;;;17.48;13.20;;;;;;;14.44;92.48;101479.28;685706;28;870;-62
2021/08/20 01:30:32;;;;;;;17.83;13.80;;;;;;;14.41;93.17;101482.06;685500;28;1412;-63
2021/08/20 01:31:03;;;;;;;19.30;14.00;;;;;;;14.40;93.11;101480.34;685659;28;995;-63
2021/08/20 01:31:27;;;;;;;21.27;14.18;;;;;;;14.34;93.46;101478.84;685647;28;964;-63
2021/08/20 01:31:51;;;;;;;18.33;14.43;;;;;;;14.33;93.36;101477.13;685731;28;892;-60
2021/08/20 01:32:12;;;;;;;17.88;13.57;;;;;;;14.32;93.24;101475.41;685635;28;1497;-62
2021/08/20 01:32:32;;;;;;;19.70;13.87;;;;;;;14.31;93.58;101478.13;685529;28;968;-62
2021/08/20 01:32:52;;;;;;;18.50;13.80;;;;;;;14.32;93.50;101471.91;685192;28;822;-62
2021/08/20 01:33:13;;;;;;;17.87;13.87;;;;;;;14.33;93.49;101478.94;685610;28;845;-64
2021/08/20 01:33:36;;;;;;;21.15;14.35;;;;;;;14.33;93.34;101473.63;685531;28;996;-63
2021/08/20 01:33:59;;;;;;;19.00;13.98;;;;;;;14.34;93.56;101473.53;685770;28;1418;-62
2021/08/20 01:34:20;;;;;;;17.77;13.63;;;;;;;14.34;93.48;101472.69;685581;28;952;-62
2021/08/20 01:34:40;;;;;;;19.40;13.85;;;;;;;14.34;93.49;101467.38;685746;28;863;-63
2021/08/20 01:35:00;;;;;;;18.33;13.50;;;;;;;14.32;93.57;101466.59;685800;28;905;-62
2021/08/20 01:35:23;;;;;;;20.40;13.80;;;;;;;14.35;93.40;101471.75;685517;28;1910;-62
2021/08/20 01:35:43;;;;;;;20.70;13.73;;;;;;;14.35;93.59;101469.97;685667;28;832;-61
2021/08/20 01:36:04;;;;;;;17.87;13.20;;;;;;;14.37;93.63;101469.88;685775;28;1023;-62
2021/08/20 01:36:24;;;;;;;18.58;14.00;;;;;;;14.36;93.64;101470.84;685839;28;833;-61
2021/08/20 01:36:45;;;;;;;22.20;13.93;;;;;;;14.35;93.64;101469.97;685881;28;1009;-62
2021/08/20 01:37:06;;;;;;;21.27;13.63;;;;;;;14.37;93.85;101475.19;685934;28;782;-61
2021/08/20 01:37:26;;;;;;;20.13;13.80;;;;;;;14.36;93.69;101470.84;685805;28;852;-61
2021/08/20 01:37:46;;;;;;;19.13;13.90;;;;;;;14.35;94.02;101469.09;685928;28;1042;-61
2021/08/20 01:38:06;;;;;;;18.20;14.07;;;;;;;14.35;94.05;101469.09;685718;28;961;-61
2021/08/20 01:38:27;;;;;;;17.07;13.40;;;;;;;14.37;93.86;101467.22;685735;28;809;-61
2021/08/20 01:38:52;;;;;;;18.60;13.63;;;;;;;14.37;94.14;101473.41;685923;28;991;-61
2021/08/20 01:39:12;;;;;;;18.02;13.98;;;;;;;14.35;94.04;101469.97;685803;28;919;-62
2021/08/20 01:39:32;;;;;;;19.17;14.50;;;;;;;14.34;94.17;101478.84;686123;28;952;-62
2021/08/20 01:39:55;;;;;;;18.80;14.40;;;;;;;14.36;94.17;101474.34;686135;28;975;-61
2021/08/20 01:40:16;;;;;;;19.42;14.13;;;;;;;14.37;94.32;101477.84;686018;28;842;-62
2021/08/20 01:40:36;;;;;;;19.58;14.18;;;;;;;14.33;94.24;101473.63;685946;28;1039;-62